Time;durP1;ratioP1;P1;durP2;ratioP2;P2;SDS_P1;SDS_P2;PMS_P1;PMS_P2;Temp;Humidity;BMP_temperature;BMP_pressure;BME280_temperature;BME280_humidity;BME280_pressure;Samples;Min_cycle;Max_cycle;Signal;HPM_P1;HPM_P2
2021/09/14 00:02:18;;;;;;;4.45;2.42;;;15.90;88.80;;;;;;5074233;28;20112;-76
2021/09/14 00:04:43;;;;;;;6.88;3.78;;;15.90;88.70;;;;;;5074781;28;20029;-76
2021/09/14 00:07:09;;;;;;;6.47;3.30;;;15.90;88.70;;;;;;5074395;28;20035;-76
2021/09/14 00:09:35;;;;;;;11.25;5.95;;;15.90;88.80;;;;;;5074285;28;20016;-76
2021/09/14 00:12:00;;;;;;;8.38;5.05;;;15.90;88.80;;;;;;5074199;28;20072;-78
2021/09/14 00:14:26;;;;;;;6.50;3.95;;;15.80;89.00;;;;;;5076008;28;20021;-76
2021/09/14 00:16:52;;;;;;;8.60;4.80;;;15.80;89.10;;;;;;5078762;28;20039;-77
2021/09/14 00:19:19;;;;;;;10.75;5.55;;;15.80;89.20;;;;;;5073527;28;20059;-77
2021/09/14 00:21:44;;;;;;;7.50;3.63;;;15.80;89.30;;;;;;5074169;28;20020;-77
2021/09/14 00:24:10;;;;;;;7.97;4.65;;;15.80;89.40;;;;;;5074963;28;20587;-77
2021/09/14 00:26:36;;;;;;;8.63;5.47;;;15.80;89.40;;;;;;5073922;28;20024;-78
2021/09/14 00:29:01;;;;;;;8.07;5.15;;;15.80;89.50;;;;;;5073873;28;20033;-78
2021/09/14 00:31:28;;;;;;;11.43;5.80;;;15.80;89.50;;;;;;5074185;28;20048;-77
2021/09/14 00:33:53;;;;;;;6.75;4.00;;;15.70;89.50;;;;;;5074436;28;20021;-78
2021/09/14 00:36:19;;;;;;;7.75;5.40;;;15.70;89.50;;;;;;5075050;28;20024;-78
2021/09/14 00:38:45;;;;;;;9.45;4.85;;;15.70;89.60;;;;;;5074362;28;20491;-78
2021/09/14 00:41:11;;;;;;;7.72;4.72;;;15.70;89.50;;;;;;5073898;28;20059;-78
2021/09/14 00:43:36;;;;;;;6.50;3.42;;;15.70;89.50;;;;;;5075269;28;20025;-77
2021/09/14 00:46:02;;;;;;;7.05;4.28;;;15.70;89.50;;;;;;5073825;28;20029;-77
2021/09/14 00:48:28;;;;;;;8.70;4.75;;;15.60;89.40;;;;;;5074069;28;20471;-77
2021/09/14 00:50:54;;;;;;;11.65;5.65;;;15.70;89.50;;;;;;5073995;28;20059;-77
2021/09/14 00:53:19;;;;;;;7.72;4.63;;;15.60;89.50;;;;;;5075750;28;20115;-77
2021/09/14 00:55:46;;;;;;;8.38;4.07;;;15.60;89.50;;;;;;5073882;28;20358;-77
2021/09/14 00:58:12;;;;;;;10.52;6.28;;;15.60;89.50;;;;;;5073327;28;20023;-77
2021/09/14 01:00:37;;;;;;;10.95;5.35;;;15.60;89.40;;;;;;5075238;28;20024;-77
2021/09/14 01:03:04;;;;;;;5.57;2.88;;;15.60;89.50;;;;;;5072962;28;20025;-77
2021/09/14 01:05:30;;;;;;;7.25;4.05;;;15.60;89.50;;;;;;5073737;28;20465;-76
2021/09/14 01:07:57;;;;;;;9.25;3.80;;;15.50;89.30;;;;;;5074842;28;20119;-77
2021/09/14 01:10:23;;;;;;;9.50;4.57;;;15.60;89.40;;;;;;5074432;28;20051;-76
2021/09/14 01:12:49;;;;;;;7.95;3.90;;;15.60;89.30;;;;;;5074720;28;20035;-77
2021/09/14 01:15:15;;;;;;;9.88;4.75;;;15.60;89.20;;;;;;5073199;28;20056;-77
2021/09/14 01:17:41;;;;;;;6.78;3.63;;;15.50;89.20;;;;;;5078183;28;20043;-77
2021/09/14 01:20:08;;;;;;;5.72;2.92;;;15.60;89.20;;;;;;5074502;28;20378;-77
2021/09/14 01:22:34;;;;;;;7.53;4.18;;;15.50;89.10;;;;;;5076425;28;20025;-77
2021/09/14 01:25:01;;;;;;;6.88;3.70;;;15.50;89.20;;;;;;5075768;28;20024;-77
2021/09/14 01:27:27;;;;;;;9.80;6.20;;;15.50;89.10;;;;;;5072514;28;20020;-77
2021/09/14 01:30:12;;;;;;;10.07;5.47;;;15.50;89.30;;;;;;5071953;28;20032;-77
2021/09/14 01:32:42;;;;;;;6.43;3.22;;;15.50;89.30;;;;;;5072886;28;20066;-77
2021/09/14 01:35:09;;;;;;;7.68;4.22;;;15.50;89.30;;;;;;5073074;28;20115;-76
2021/09/14 01:37:35;;;;;;;9.73;6.45;;;15.40;89.30;;;;;;5073351;28;20024;-77
2021/09/14 01:40:00;;;;;;;11.93;6.70;;;15.50;89.40;;;;;;5073952;28;20054;-78
2021/09/14 01:42:26;;;;;;;9.85;4.60;;;15.40;89.40;;;;;;5072915;28;20052;-76
2021/09/14 01:44:52;;;;;;;9.63;6.03;;;15.40;89.50;;;;;;5071956;28;20032;-76
2021/09/14 01:47:18;;;;;;;11.20;6.25;;;15.40;89.60;;;;;;5073308;28;20389;-77
2021/09/14 01:49:43;;;;;;;7.57;4.60;;;15.40;89.70;;;;;;5073927;28;20098;-77
2021/09/14 01:52:09;;;;;;;10.75;6.60;;;15.40;89.80;;;;;;5073139;28;20025;-77
2021/09/14 01:54:34;;;;;;;8.07;5.10;;;15.40;89.80;;;;;;5074038;28;20020;-77
2021/09/14 01:57:00;;;;;;;10.10;6.03;;;15.40;89.90;;;;;;5076546;28;20029;-76
2021/09/14 01:59:26;;;;;;;8.30;5.57;;;15.30;89.90;;;;;;5072598;28;20035;-76
2021/09/14 02:02:05;;;;;;;11.15;6.32;;;15.30;89.90;;;;;;5071840;28;20021;-76
2021/09/14 02:07:32;;;;;;;10.23;6.40;;;15.30;90.00;;;;;;5074139;28;20350;-77
2021/09/14 02:24:25;;;;;;;6.55;4.03;;;15.20;90.10;;;;;;5073253;28;20090;-77
2021/09/14 02:58:40;;;;;;;13.25;7.80;;;15.00;90.10;;;;;;5072598;28;20554;-75
2021/09/14 03:01:12;;;;;;;10.38;6.95;;;15.00;90.20;;;;;;5071454;28;20028;-77
2021/09/14 03:03:41;;;;;;;12.63;8.00;;;15.00;90.20;;;;;;5072247;28;20040;-77
2021/09/14 03:06:08;;;;;;;14.60;7.65;;;15.00;90.30;;;;;;5070933;28;20021;-76
2021/09/14 03:08:36;;;;;;;9.40;6.50;;;15.00;90.30;;;;;;5070954;28;20017;-77
2021/09/14 03:11:10;;;;;;;10.63;6.53;;;15.00;90.40;;;;;;5073226;28;20020;-76
2021/09/14 03:13:40;;;;;;;11.85;7.13;;;15.00;90.40;;;;;;5076071;28;20036;-75
2021/09/14 03:16:06;;;;;;;16.23;7.50;;;15.00;90.50;;;;;;5073898;28;20032;-76
2021/09/14 03:18:32;;;;;;;11.18;7.82;;;15.00;90.50;;;;;;5077764;28;20488;-76
2021/09/14 03:20:58;;;;;;;11.40;7.03;;;15.00;90.50;;;;;;5070815;28;20017;-76
2021/09/14 03:23:24;;;;;;;10.25;6.47;;;15.00;90.50;;;;;;5070458;28;20046;-76
2021/09/14 03:25:50;;;;;;;9.27;6.05;;;15.00;90.50;;;;;;5070766;28;20545;-76
2021/09/14 03:28:16;;;;;;;12.38;7.00;;;15.00;90.50;;;;;;5070305;28;20103;-76
2021/09/14 03:30:43;;;;;;;11.88;6.80;;;15.00;90.50;;;;;;5073491;28;20066;-76
2021/09/14 03:33:09;;;;;;;12.05;7.60;;;14.90;90.50;;;;;;5076816;28;20021;-75
2021/09/14 03:35:35;;;;;;;10.80;7.50;;;14.90;90.50;;;;;;5076130;28;20023;-76
2021/09/14 03:38:01;;;;;;;7.68;5.10;;;14.90;90.50;;;;;;5075073;28;20020;-76
2021/09/14 03:40:26;;;;;;;10.38;6.18;;;14.90;90.50;;;;;;5076295;28;20075;-76
2021/09/14 03:42:52;;;;;;;9.68;6.63;;;14.90;90.50;;;;;;5075729;28;20059;-76
2021/09/14 03:45:17;;;;;;;9.18;5.57;;;14.90;90.50;;;;;;5074981;28;20508;-75
2021/09/14 03:47:43;;;;;;;12.70;7.03;;;14.90;90.50;;;;;;5075188;28;20028;-76
2021/09/14 03:50:09;;;;;;;7.82;4.75;;;14.90;90.40;;;;;;5075692;28;20530;-76
2021/09/14 03:52:35;;;;;;;6.38;4.25;;;14.90;90.30;;;;;;5075933;28;20051;-76
2021/09/14 03:55:00;;;;;;;7.53;4.55;;;14.80;90.30;;;;;;5074563;28;20449;-76
2021/09/14 03:57:26;;;;;;;11.80;7.78;;;14.80;90.30;;;;;;5074262;28;20036;-76
2021/09/14 03:59:52;;;;;;;14.57;7.78;;;14.80;90.30;;;;;;5074911;28;20021;-76
2021/09/14 04:02:29;;;;;;;9.63;6.13;;;14.90;90.40;;;;;;5073920;28;20029;-76
2021/09/14 04:09:53;;;;;;;15.48;9.77;;;14.80;90.50;;;;;;5075863;28;20029;-76
2021/09/14 04:12:19;;;;;;;16.23;10.05;;;14.80;90.50;;;;;;5075367;28;20028;-76
2021/09/14 04:14:44;;;;;;;15.48;9.98;;;14.80;90.60;;;;;;5074310;28;20024;-77
2021/09/14 04:17:10;;;;;;;11.38;7.30;;;14.70;90.60;;;;;;5075148;28;20021;-76
2021/09/14 04:19:36;;;;;;;13.48;8.93;;;14.70;90.70;;;;;;5073019;28;20021;-76
2021/09/14 04:22:03;;;;;;;10.75;5.80;;;14.70;90.70;;;;;;5075207;28;20025;-76
2021/09/14 04:24:28;;;;;;;13.45;8.43;;;14.70;90.70;;;;;;5073561;28;20503;-76
2021/09/14 04:26:54;;;;;;;17.00;10.52;;;14.70;90.70;;;;;;5074078;28;20021;-76
2021/09/14 04:29:20;;;;;;;13.98;8.82;;;14.70;90.70;;;;;;5074352;28;20024;-77
2021/09/14 04:31:46;;;;;;;13.65;7.63;;;14.70;90.70;;;;;;5076574;28;20028;-76
2021/09/14 04:34:11;;;;;;;12.23;8.15;;;14.60;90.70;;;;;;5075121;28;20024;-76
2021/09/14 04:36:37;;;;;;;17.02;10.40;;;14.60;90.70;;;;;;5073749;28;20308;-76
2021/09/14 04:39:02;;;;;;;16.25;10.73;;;14.60;90.80;;;;;;5075108;28;20048;-76
2021/09/14 04:41:28;;;;;;;14.15;8.30;;;14.60;90.80;;;;;;5073366;28;20047;-76
2021/09/14 04:43:53;;;;;;;17.60;11.20;;;14.60;90.70;;;;;;5073455;28;20033;-76
2021/09/14 04:46:19;;;;;;;14.85;9.35;;;14.60;91.00;;;;;;5073562;28;20035;-76
2021/09/14 04:48:45;;;;;;;16.25;11.23;;;14.60;90.80;;;;;;5074173;28;20468;-76
2021/09/14 04:51:10;;;;;;;21.00;13.70;;;14.60;90.90;;;;;;5074812;28;20412;-76
2021/09/14 04:53:36;;;;;;;21.65;14.25;;;14.60;91.00;;;;;;5073238;28;20020;-77
2021/09/14 04:56:01;;;;;;;22.58;15.02;;;14.60;91.10;;;;;;5073402;28;20042;-75
2021/09/14 04:58:27;;;;;;;20.45;13.60;;;14.60;91.10;;;;;;5072523;28;20024;-75
2021/09/14 05:00:52;;;;;;;17.23;11.75;;;14.60;91.10;;;;;;5072752;28;20028;-76
2021/09/14 05:03:18;;;;;;;19.88;13.88;;;14.60;91.10;;;;;;5073646;28;20371;-75
2021/09/14 05:05:44;;;;;;;19.20;13.30;;;14.60;91.20;;;;;;5074952;28;20048;-76
2021/09/14 05:08:09;;;;;;;19.85;13.07;;;14.50;91.10;;;;;;5078479;28;20074;-76
2021/09/14 05:10:35;;;;;;;19.30;11.73;;;14.50;91.20;;;;;;5074643;28;20127;-76
2021/09/14 05:13:03;;;;;;;18.40;12.50;;;14.50;91.20;;;;;;5076982;28;20024;-76
2021/09/14 05:15:28;;;;;;;19.95;14.05;;;14.50;91.30;;;;;;5072453;28;20021;-76
2021/09/14 05:17:54;;;;;;;18.27;12.88;;;14.50;91.30;;;;;;5072607;28;20016;-75
2021/09/14 05:20:20;;;;;;;17.80;11.95;;;14.50;91.60;;;;;;5072382;28;20025;-75
2021/09/14 05:22:49;;;;;;;17.75;11.43;;;14.50;91.30;;;;;;5072383;28;20029;-76
2021/09/14 05:25:15;;;;;;;16.65;12.02;;;14.50;91.30;;;;;;5073461;28;20020;-74
2021/09/14 05:27:41;;;;;;;18.27;12.25;;;14.50;91.30;;;;;;5072189;28;20027;-76
2021/09/14 05:30:07;;;;;;;18.70;12.88;;;14.50;91.20;;;;;;5072671;28;20025;-76
2021/09/14 05:32:32;;;;;;;18.23;13.10;;;14.50;91.20;;;;;;5073240;28;20024;-77
2021/09/14 05:35:04;;;;;;;20.10;14.25;;;14.50;91.20;;;;;;5075851;28;20055;-76
2021/09/14 05:37:30;;;;;;;22.88;14.82;;;14.50;91.30;;;;;;5073708;28;20025;-76
2021/09/14 05:39:55;;;;;;;23.48;15.32;;;14.50;91.30;;;;;;5072459;28;20029;-76
2021/09/14 05:42:21;;;;;;;20.67;15.20;;;14.60;91.40;;;;;;5074197;28;20108;-74
2021/09/14 05:44:46;;;;;;;21.70;14.88;;;14.60;91.40;;;;;;5071848;28;20020;-75
2021/09/14 05:47:12;;;;;;;20.05;14.98;;;14.60;91.30;;;;;;5073232;28;20024;-77
2021/09/14 05:49:38;;;;;;;19.10;13.20;;;14.70;91.30;;;;;;5071654;28;20039;-76
2021/09/14 05:52:04;;;;;;;18.75;12.20;;;14.70;91.30;;;;;;5071567;28;20052;-77
2021/09/14 05:54:29;;;;;;;18.77;13.98;;;14.80;91.20;;;;;;5071532;28;20020;-76
2021/09/14 05:56:55;;;;;;;21.38;15.13;;;14.80;91.20;;;;;;5071521;28;20468;-77
2021/09/14 05:59:21;;;;;;;20.70;14.05;;;14.90;91.10;;;;;;5070999;28;20029;-76
2021/09/14 06:01:46;;;;;;;18.55;13.95;;;15.00;91.00;;;;;;5072670;28;20028;-74
2021/09/14 06:04:12;;;;;;;20.15;14.45;;;15.00;91.00;;;;;;5071281;28;20473;-76
2021/09/14 06:06:38;;;;;;;22.00;14.43;;;15.10;90.80;;;;;;5072173;28;20100;-75
2021/09/14 06:09:03;;;;;;;18.42;13.50;;;15.20;90.60;;;;;;5072922;28;20020;-76
2021/09/14 06:11:29;;;;;;;20.35;14.38;;;15.20;90.50;;;;;;5072794;28;20044;-76
2021/09/14 06:13:54;;;;;;;16.05;12.18;;;15.40;90.50;;;;;;5073315;28;20146;-76
2021/09/14 06:16:20;;;;;;;15.35;11.85;;;15.50;90.30;;;;;;5073120;28;20036;-76
2021/09/14 06:18:45;;;;;;;16.30;12.52;;;15.60;90.20;;;;;;5073357;28;20026;-76
2021/09/14 06:21:13;;;;;;;16.30;10.93;;;15.70;90.00;;;;;;5072109;28;20020;-75
2021/09/14 06:23:39;;;;;;;16.33;12.27;;;15.80;89.80;;;;;;5072828;28;20549;-77
2021/09/14 06:26:05;;;;;;;14.25;10.43;;;16.00;89.50;;;;;;5073053;28;20071;-76
2021/09/14 06:28:30;;;;;;;16.02;12.15;;;16.00;89.20;;;;;;5071433;28;20029;-76
2021/09/14 06:30:56;;;;;;;11.57;8.13;;;16.10;88.70;;;;;;5073223;28;20388;-76
2021/09/14 06:33:23;;;;;;;6.35;3.55;;;16.10;88.00;;;;;;5073747;28;20034;-76
2021/09/14 06:35:49;;;;;;;5.28;2.92;;;16.10;86.20;;;;;;5072351;28;20056;-76
2021/09/14 06:38:14;;;;;;;6.35;3.08;;;16.10;85.40;;;;;;5071115;28;20098;-76
2021/09/14 06:40:40;;;;;;;5.40;3.25;;;16.20;85.10;;;;;;5071867;28;20116;-76
2021/09/14 06:43:05;;;;;;;5.97;2.58;;;16.20;84.90;;;;;;5072002;28;20031;-78
2021/09/14 06:45:31;;;;;;;5.18;2.88;;;16.20;84.70;;;;;;5073092;28;20033;-76
2021/09/14 06:47:57;;;;;;;4.50;2.83;;;16.30;84.50;;;;;;5071686;28;20021;-76
2021/09/14 06:50:23;;;;;;;13.27;9.48;;;16.30;84.40;;;;;;5070587;28;20025;-74
2021/09/14 06:52:49;;;;;;;11.10;8.20;;;16.30;84.40;;;;;;5073061;28;20107;-76
2021/09/14 06:55:15;;;;;;;14.07;9.02;;;16.40;85.00;;;;;;5073610;28;20025;-77
2021/09/14 06:57:41;;;;;;;14.45;9.75;;;16.40;85.20;;;;;;5073460;28;20021;-76
2021/09/14 07:00:08;;;;;;;9.98;6.47;;;16.50;85.60;;;;;;5076352;28;20070;-75
2021/09/14 07:02:33;;;;;;;14.50;10.63;;;16.50;85.40;;;;;;5075319;28;20020;-76
2021/09/14 07:04:59;;;;;;;13.65;10.50;;;16.60;85.60;;;;;;5076070;28;20032;-77
2021/09/14 07:07:24;;;;;;;12.45;8.15;;;16.70;85.40;;;;;;5080586;28;20037;-77
2021/09/14 07:09:50;;;;;;;11.18;8.38;;;16.70;85.40;;;;;;5076617;28;20031;-77
2021/09/14 07:12:16;;;;;;;15.43;10.85;;;16.70;85.50;;;;;;5075298;28;20070;-75
2021/09/14 07:14:41;;;;;;;17.25;8.88;;;16.80;85.60;;;;;;5074815;28;20372;-75
2021/09/14 07:17:09;;;;;;;11.65;8.75;;;16.80;85.20;;;;;;5076493;28;20027;-76
2021/09/14 07:19:34;;;;;;;10.45;7.13;;;16.80;85.20;;;;;;5075915;28;20020;-77
2021/09/14 07:22:00;;;;;;;15.02;8.90;;;16.80;85.10;;;;;;5076951;28;20070;-76
2021/09/14 07:24:25;;;;;;;13.45;9.85;;;16.80;85.00;;;;;;5077544;28;20020;-76
2021/09/14 07:26:51;;;;;;;10.75;7.50;;;16.80;84.80;;;;;;5078174;28;20437;-77
2021/09/14 07:29:17;;;;;;;14.43;10.45;;;16.80;84.80;;;;;;5076239;28;20039;-76
2021/09/14 07:31:44;;;;;;;9.35;6.55;;;16.90;84.90;;;;;;5075855;28;20032;-76
2021/09/14 07:34:10;;;;;;;13.70;9.90;;;17.00;84.50;;;;;;5074494;28;20024;-77
2021/09/14 07:36:35;;;;;;;12.57;7.57;;;17.00;84.50;;;;;;5075770;28;20409;-75
2021/09/14 07:39:01;;;;;;;13.32;9.98;;;17.10;84.10;;;;;;5075872;28;20086;-76
2021/09/14 07:41:27;;;;;;;13.73;8.20;;;17.30;83.80;;;;;;5073983;28;20027;-77
2021/09/14 07:43:52;;;;;;;13.07;9.85;;;17.50;83.20;;;;;;5074397;28;20035;-76
2021/09/14 07:46:18;;;;;;;14.98;10.50;;;17.70;82.60;;;;;;5074965;28;20058;-76
2021/09/14 07:48:43;;;;;;;9.80;7.57;;;17.70;82.50;;;;;;5074394;28;20112;-76
2021/09/14 07:51:09;;;;;;;4.43;2.72;;;17.80;81.60;;;;;;5075800;28;20461;-77
2021/09/14 07:53:34;;;;;;;7.05;3.75;;;17.90;80.50;;;;;;5074359;28;20025;-76
2021/09/14 07:56:00;;;;;;;6.03;3.17;;;18.10;79.60;;;;;;5075544;28;20052;-76
2021/09/14 07:58:26;;;;;;;14.27;9.07;;;18.30;78.70;;;;;;5075562;28;20021;-76
2021/09/14 08:00:51;;;;;;;10.20;6.40;;;18.50;78.90;;;;;;5075970;28;20499;-77
2021/09/14 08:03:17;;;;;;;9.35;4.50;;;18.60;78.10;;;;;;5074961;28;20073;-78
2021/09/14 08:05:42;;;;;;;7.80;5.15;;;18.70;77.40;;;;;;5076795;28;20137;-77
2021/09/14 08:08:08;;;;;;;11.45;6.60;;;18.70;77.50;;;;;;5074838;28;20488;-78
2021/09/14 08:10:35;;;;;;;9.07;5.95;;;18.80;77.50;;;;;;5074615;28;20025;-79
2021/09/14 08:13:01;;;;;;;9.27;6.43;;;18.90;77.20;;;;;;5074530;28;20473;-79
2021/09/14 08:15:26;;;;;;;12.35;8.02;;;19.00;77.30;;;;;;5073970;28;20112;-80
2021/09/14 08:17:52;;;;;;;16.45;11.63;;;19.10;77.60;;;;;;5072907;28;20389;-78
2021/09/14 08:20:18;;;;;;;15.52;10.60;;;19.30;76.90;;;;;;5074070;28;20111;-78
2021/09/14 08:22:43;;;;;;;12.38;8.27;;;19.30;75.80;;;;;;5074595;28;20033;-79
2021/09/14 08:25:09;;;;;;;8.82;6.25;;;19.50;75.90;;;;;;5074538;28;20029;-78
2021/09/14 08:27:35;;;;;;;10.00;7.53;;;19.50;75.70;;;;;;5075526;28;20027;-78
2021/09/14 08:30:02;;;;;;;18.33;8.75;;;19.60;76.00;;;;;;5074595;28;20469;-76
2021/09/14 08:32:28;;;;;;;13.05;9.88;;;19.70;75.30;;;;;;5075086;28;20495;-76
2021/09/14 08:34:53;;;;;;;14.43;10.07;;;19.80;74.70;;;;;;5074242;28;20020;-78
2021/09/14 08:37:19;;;;;;;18.00;12.15;;;19.80;74.60;;;;;;5075013;28;20033;-77
2021/09/14 08:39:44;;;;;;;13.75;10.52;;;19.90;74.60;;;;;;5073999;28;20115;-77
2021/09/14 08:42:11;;;;;;;13.00;8.65;;;20.10;74.70;;;;;;5075164;28;20111;-77
2021/09/14 08:44:40;;;;;;;11.77;7.93;;;20.40;73.80;;;;;;5073960;28;20029;-76
2021/09/14 08:47:06;;;;;;;10.65;8.30;;;20.50;74.10;;;;;;5074162;28;20107;-78
2021/09/14 08:49:33;;;;;;;11.77;7.30;;;20.80;73.30;;;;;;5074836;28;20017;-75
2021/09/14 08:51:58;;;;;;;14.48;10.57;;;20.90;72.80;;;;;;5076615;28;20016;-75
2021/09/14 08:54:24;;;;;;;11.48;8.07;;;21.10;72.30;;;;;;5077099;28;20021;-76
2021/09/14 08:56:50;;;;;;;9.65;6.22;;;21.40;71.90;;;;;;5078786;28;20025;-76
2021/09/14 08:59:30;;;;;;;10.30;7.72;;;21.60;71.40;;;;;;5075793;28;20384;-76
2021/09/14 09:02:01;;;;;;;10.95;6.65;;;21.70;71.80;;;;;;5075836;28;20469;-76
2021/09/14 09:04:27;;;;;;;13.85;10.10;;;22.00;71.20;;;;;;5075004;28;20069;-76
2021/09/14 09:06:52;;;;;;;9.95;6.95;;;22.20;71.00;;;;;;5073883;28;20020;-77
2021/09/14 09:09:21;;;;;;;15.90;12.82;;;22.40;69.50;;;;;;5073701;28;20020;-76
2021/09/14 09:12:00;;;;;;;14.75;11.13;;;22.30;68.10;;;;;;5075532;28;20062;-75
2021/09/14 09:14:42;;;;;;;15.30;10.63;;;22.30;68.60;;;;;;5064397;28;20115;-77
2021/09/14 09:17:16;;;;;;;10.90;8.65;;;22.30;68.60;;;;;;5044312;28;20298;-77
2021/09/14 09:19:56;;;;;;;7.63;6.13;;;22.50;69.60;;;;;;5053192;28;20112;-78
2021/09/14 09:22:26;;;;;;;10.70;8.23;;;22.50;70.50;;;;;;5054920;28;20025;-76
2021/09/14 09:24:53;;;;;;;;;;;22.50;70.50;;;;;;5054256;28;20029;-75
2021/09/14 09:27:25;;;;;;;13.00;8.88;;;22.70;68.80;;;;;;5053222;28;19905;-76
2021/09/14 09:30:05;;;;;;;15.63;11.73;;;22.90;68.70;;;;;;5051695;28;20473;-76
2021/09/14 09:32:47;;;;;;;;;;;23.10;69.20;;;;;;5052549;28;20021;-76
2021/09/14 09:35:24;;;;;;;13.45;10.32;;;23.30;68.40;;;;;;5053748;28;20397;-77
2021/09/14 09:37:56;;;;;;;8.75;6.35;;;23.70;69.50;;;;;;5054341;28;20343;-76
2021/09/14 09:40:27;;;;;;;11.55;6.60;;;23.90;67.60;;;;;;5053487;28;20028;-77
2021/09/14 09:42:53;;;;;;;7.70;4.82;;;24.20;68.00;;;;;;5053194;28;20039;-78
2021/09/14 09:45:20;;;;;;;10.52;7.50;;;24.10;68.00;;;;;;5052562;28;20037;-77
2021/09/14 09:47:48;;;;;;;7.63;4.25;;;24.00;69.20;;;;;;5052474;28;20488;-77
2021/09/14 09:50:13;;;;;;;8.25;5.88;;;24.10;69.80;;;;;;5054528;28;20107;-78
2021/09/14 09:52:43;;;;;;;9.10;6.43;;;24.10;70.00;;;;;;5053481;28;20426;-78
2021/09/14 09:55:09;;;;;;;10.38;6.28;;;24.00;67.20;;;;;;5053787;28;20025;-77
2021/09/14 09:57:36;;;;;;;9.07;6.43;;;23.80;71.00;;;;;;5052933;28;20017;-77
2021/09/14 10:00:09;;;;;;;6.68;5.05;;;23.70;68.80;;;;;;5053185;28;20476;-76
2021/09/14 10:02:46;;;;;;;6.22;4.13;;;23.50;70.60;;;;;;5052196;28;20195;-77
2021/09/14 10:05:13;;;;;;;5.57;3.30;;;23.40;72.40;;;;;;5052457;28;20381;-77
2021/09/14 10:07:45;;;;;;;6.28;4.28;;;23.40;74.10;;;;;;5053660;28;20442;-77
2021/09/14 10:10:11;;;;;;;9.02;5.75;;;23.30;74.20;;;;;;5052226;28;20025;-78
2021/09/14 10:12:36;;;;;;;5.57;3.40;;;23.20;73.60;;;;;;5052079;28;20032;-78
2021/09/14 10:15:20;;;;;;;8.57;5.45;;;23.20;74.40;;;;;;5052618;28;20021;-77
2021/09/14 10:17:48;;;;;;;8.80;4.65;;;23.20;72.80;;;;;;5051995;28;20116;-77
2021/09/14 10:20:14;;;;;;;10.10;7.00;;;23.20;73.50;;;;;;5052013;28;20224;-76
2021/09/14 10:22:40;;;;;;;8.13;6.30;;;23.20;73.80;;;;;;5052984;28;20056;-76
2021/09/14 10:25:07;;;;;;;8.55;6.28;;;23.20;71.90;;;;;;5051961;28;20468;-76
2021/09/14 10:27:38;;;;;;;7.40;5.15;;;23.10;73.60;;;;;;5053648;28;20062;-77
2021/09/14 10:30:07;;;;;;;8.65;6.30;;;23.10;73.20;;;;;;5051641;28;20029;-76
2021/09/14 10:32:45;;;;;;;4.55;3.13;;;23.10;73.20;;;;;;5053112;28;20112;-75
2021/09/14 10:35:12;;;;;;;5.75;3.50;;;23.00;74.20;;;;;;5051376;28;20035;-76
2021/09/14 10:37:39;;;;;;;7.05;5.38;;;23.00;74.90;;;;;;5052567;28;20025;-77
2021/09/14 10:40:08;;;;;;;6.10;3.97;;;23.10;73.70;;;;;;5050242;28;20045;-77
2021/09/14 10:42:38;;;;;;;10.32;8.13;;;23.10;73.40;;;;;;5052380;28;20032;-76
2021/09/14 10:45:10;;;;;;;8.70;5.63;;;23.00;71.90;;;;;;5052805;28;20017;-76
2021/09/14 10:47:39;;;;;;;6.03;4.10;;;23.10;72.40;;;;;;5059600;28;20051;-76
2021/09/14 10:50:05;;;;;;;9.20;5.28;;;23.20;73.10;;;;;;5057477;28;20104;-76
2021/09/14 10:52:42;;;;;;;10.93;8.18;;;23.30;72.60;;;;;;5058187;28;20036;-76
2021/09/14 10:55:13;;;;;;;9.35;6.78;;;23.30;71.30;;;;;;5054953;28;20021;-76
2021/09/14 10:57:41;;;;;;;7.63;4.20;;;23.30;71.50;;;;;;5057491;28;20028;-75
2021/09/14 11:00:12;;;;;;;7.40;4.65;;;23.30;72.50;;;;;;5054805;28;20031;-75
2021/09/14 11:02:39;;;;;;;10.52;6.28;;;23.30;72.20;;;;;;5056274;28;20025;-79
2021/09/14 11:05:06;;;;;;;7.15;4.78;;;23.50;71.70;;;;;;5054498;28;20078;-75
2021/09/14 11:07:32;;;;;;;9.05;7.43;;;23.80;71.50;;;;;;5051938;28;20171;-77
2021/09/14 11:10:00;;;;;;;10.15;8.32;;;24.10;69.60;;;;;;5052276;28;20183;-77
2021/09/14 11:12:28;;;;;;;7.43;6.13;;;24.50;69.30;;;;;;5050983;28;20103;-77
2021/09/14 11:14:56;;;;;;;12.05;9.48;;;24.60;69.10;;;;;;5052206;28;20025;-76
2021/09/14 11:17:22;;;;;;;9.65;7.32;;;24.90;67.20;;;;;;5050953;28;20354;-77
2021/09/14 11:19:51;;;;;;;9.38;5.63;;;25.00;65.40;;;;;;5050873;28;20438;-76
2021/09/14 11:22:34;;;;;;;11.23;5.75;;;24.90;68.80;;;;;;5051185;28;20040;-75
2021/09/14 11:25:00;;;;;;;9.82;6.68;;;25.00;69.70;;;;;;5051559;28;20116;-76
2021/09/14 11:27:26;;;;;;;9.80;5.75;;;25.30;68.20;;;;;;5051277;28;20028;-77
2021/09/14 11:29:52;;;;;;;12.98;9.43;;;25.50;67.80;;;;;;5052278;28;20407;-76
2021/09/14 11:32:18;;;;;;;10.45;6.50;;;25.60;65.20;;;;;;5051396;28;20033;-78
2021/09/14 11:34:44;;;;;;;7.22;5.47;;;25.50;68.00;;;;;;5051875;28;20045;-76
2021/09/14 11:37:10;;;;;;;7.22;4.82;;;25.60;68.90;;;;;;5051489;28;20036;-76
2021/09/14 11:39:37;;;;;;;9.00;6.60;;;25.70;68.50;;;;;;5051305;28;20112;-75
2021/09/14 11:42:03;;;;;;;7.38;5.00;;;25.80;67.40;;;;;;5052564;28;20025;-76
2021/09/14 11:44:29;;;;;;;16.38;14.35;;;25.70;69.20;;;;;;5051085;28;20021;-76
2021/09/14 11:47:05;;;;;;;5.72;4.32;;;25.60;64.20;;;;;;5050930;28;20047;-77
2021/09/14 11:49:30;;;;;;;10.32;7.25;;;25.40;68.60;;;;;;5052509;28;20028;-76
2021/09/14 11:52:01;;;;;;;11.52;8.35;;;25.60;68.40;;;;;;5053586;28;20032;-76
2021/09/14 11:54:33;;;;;;;6.60;5.05;;;25.80;70.00;;;;;;5056052;28;20021;-76
2021/09/14 11:56:59;;;;;;;9.10;6.97;;;25.80;69.40;;;;;;5055674;28;20032;-76
2021/09/14 11:59:36;;;;;;;7.18;5.95;;;25.90;67.20;;;;;;5055255;28;20025;-76
2021/09/14 12:02:03;;;;;;;7.20;4.63;;;26.10;69.60;;;;;;5054211;28;20029;-76
2021/09/14 12:04:29;;;;;;;11.82;8.02;;;26.40;68.40;;;;;;5054257;28;20031;-76
2021/09/14 12:06:58;;;;;;;8.77;6.90;;;26.50;66.60;;;;;;5055664;28;20377;-76
2021/09/14 12:09:30;;;;;;;6.97;5.45;;;26.80;66.80;;;;;;5055224;28;20484;-76
2021/09/14 12:12:04;;;;;;;9.05;7.03;;;27.10;66.10;;;;;;5054183;28;20021;-77
2021/09/14 12:14:30;;;;;;;7.38;3.92;;;27.40;66.30;;;;;;5054411;28;20087;-77
2021/09/14 12:17:03;;;;;;;13.38;8.68;;;27.60;66.00;;;;;;5054286;28;20111;-77
2021/09/14 12:19:30;;;;;;;6.28;3.45;;;27.60;62.20;;;;;;5054075;28;20017;-77
2021/09/14 12:21:56;;;;;;;8.93;5.22;;;27.40;66.30;;;;;;5055112;28;20029;-76
2021/09/14 12:24:22;;;;;;;6.88;4.40;;;27.30;65.70;;;;;;5055102;28;20033;-77
2021/09/14 12:26:51;;;;;;;7.18;5.43;;;27.20;62.10;;;;;;5055061;28;20032;-76
2021/09/14 12:29:18;;;;;;;7.18;4.28;;;27.20;64.80;;;;;;5055233;28;20107;-77
2021/09/14 12:31:44;;;;;;;5.93;3.58;;;27.10;67.10;;;;;;5055465;28;20021;-77
2021/09/14 12:34:10;;;;;;;6.20;4.28;;;27.10;68.10;;;;;;5055938;28;20094;-77
2021/09/14 12:36:39;;;;;;;5.05;3.28;;;27.10;67.80;;;;;;5056317;28;20029;-77
2021/09/14 12:39:05;;;;;;;7.80;5.43;;;27.00;66.60;;;;;;5059915;28;20472;-77
2021/09/14 12:41:31;;;;;;;7.50;4.93;;;26.90;66.20;;;;;;5064520;28;20025;-76
2021/09/14 12:43:56;;;;;;;6.47;5.00;;;26.80;64.10;;;;;;5059850;28;20025;-76
2021/09/14 12:46:22;;;;;;;4.97;3.08;;;26.90;65.10;;;;;;5065082;28;20027;-77
2021/09/14 12:48:48;;;;;;;6.47;4.38;;;27.00;66.20;;;;;;5061220;28;20412;-77
2021/09/14 12:51:14;;;;;;;6.00;3.85;;;27.00;66.10;;;;;;5063010;28;20030;-77
2021/09/14 12:53:40;;;;;;;5.97;4.22;;;27.00;68.00;;;;;;5065283;28;20025;-75
2021/09/14 12:56:08;;;;;;;6.40;3.80;;;27.10;67.10;;;;;;5056123;28;20048;-76
2021/09/14 12:58:35;;;;;;;7.15;5.72;;;27.00;66.60;;;;;;5054617;28;20032;-77
2021/09/14 13:01:00;;;;;;;8.60;6.15;;;27.20;64.10;;;;;;5055109;28;20112;-76
2021/09/14 13:03:26;;;;;;;6.13;4.18;;;27.40;61.70;;;;;;5053657;28;20163;-76
2021/09/14 13:05:51;;;;;;;4.65;2.60;;;27.40;63.10;;;;;;5054553;28;20496;-77
2021/09/14 13:08:17;;;;;;;5.63;3.80;;;27.50;65.70;;;;;;5055156;28;20028;-77
2021/09/14 13:10:42;;;;;;;7.50;5.55;;;27.60;64.70;;;;;;5053529;28;20039;-77
2021/09/14 13:16:11;;;;;;;5.07;3.22;;;27.80;61.10;;;;;;5053869;28;20036;-77
2021/09/14 13:18:37;;;;;;;5.85;4.40;;;27.60;63.20;;;;;;5054381;28;20377;-77
2021/09/14 13:21:06;;;;;;;4.57;3.17;;;27.30;64.70;;;;;;5053931;28;20060;-77
2021/09/14 13:23:33;;;;;;;7.03;4.70;;;27.00;67.50;;;;;;5052870;28;20033;-77
2021/09/14 13:25:59;;;;;;;8.27;5.32;;;26.70;63.40;;;;;;5052996;28;20025;-77
2021/09/14 13:28:25;;;;;;;5.78;3.20;;;26.60;65.30;;;;;;5052348;28;20065;-76
2021/09/14 13:30:51;;;;;;;7.25;4.70;;;26.50;68.10;;;;;;5052449;28;20483;-76
2021/09/14 13:33:19;;;;;;;7.32;4.97;;;26.50;66.90;;;;;;5052581;28;20461;-77
2021/09/14 13:35:44;;;;;;;4.88;2.80;;;26.40;65.40;;;;;;5053266;28;20030;-76
2021/09/14 13:38:10;;;;;;;5.45;3.70;;;26.30;67.40;;;;;;5054057;28;20028;-76